Time;durP1;ratioP1;P1;durP2;ratioP2;P2;SDS_P1;SDS_P2;PMS_P1;PMS_P2;Temp;Humidity;BMP_temperature;BMP_pressure;BME280_temperature;BME280_humidity;BME280_pressure;Samples;Min_cycle;Max_cycle;Signal;HPM_P1;HPM_P2
2022/04/29 00:00:51;;;;;;;12.55;7.80;;;;;;;7.71;100.00;102905.97;5302322;28;20024;-75
2022/04/29 00:03:22;;;;;;;14.80;8.55;;;;;;;7.73;100.00;102903.22;5316689;27;20029;-75
2022/04/29 00:05:55;;;;;;;15.48;8.20;;;;;;;7.68;100.00;102913.19;5301460;28;20025;-75
2022/04/29 00:08:26;;;;;;;15.98;8.27;;;;;;;7.64;100.00;102908.97;5308033;28;20036;-75
2022/04/29 00:10:57;;;;;;;16.50;8.45;;;;;;;7.61;100.00;102906.47;5304996;27;20025;-75
2022/04/29 00:13:28;;;;;;;14.30;8.07;;;;;;;7.62;100.00;102894.91;5307698;28;20135;-76
2022/04/29 00:16:00;;;;;;;15.80;8.65;;;;;;;7.68;100.00;102895.50;5303613;27;20028;-75
2022/04/29 00:18:32;;;;;;;17.23;8.13;;;;;;;7.59;100.00;102898.59;5307574;28;20036;-75
2022/04/29 00:21:04;;;;;;;18.45;8.38;;;;;;;7.48;100.00;102885.78;5306039;28;20490;-75
2022/04/29 00:23:36;;;;;;;14.20;8.07;;;;;;;7.57;100.00;102895.13;5304986;28;20036;-75
2022/04/29 00:26:07;;;;;;;18.98;8.48;;;;;;;7.41;100.00;102894.97;5303778;28;20051;-75
2022/04/29 00:28:38;;;;;;;16.02;8.43;;;;;;;7.46;100.00;102898.28;5305066;28;40490;-75
2022/04/29 00:31:09;;;;;;;17.85;8.60;;;;;;;7.43;100.00;102900.22;5304463;27;20092;-75
2022/04/29 00:33:41;;;;;;;13.75;8.55;;;;;;;7.36;100.00;102895.22;5307049;28;20054;-75
2022/04/29 00:36:12;;;;;;;14.10;7.75;;;;;;;7.38;100.00;102895.13;5303011;27;20074;-75
2022/04/29 00:38:43;;;;;;;14.80;8.60;;;;;;;7.34;100.00;102890.91;5303033;28;20445;-75
2022/04/29 00:41:18;;;;;;;15.90;9.00;;;;;;;7.32;100.00;102890.97;5306621;27;20136;-75
2022/04/29 00:44:06;;;;;;;17.73;8.80;;;;;;;7.33;100.00;102892.69;5305528;28;20020;-75
2022/04/29 00:46:42;;;;;;;13.75;8.30;;;;;;;7.34;100.00;102890.91;5302522;28;20045;-75
2022/04/29 00:49:15;;;;;;;14.13;8.90;;;;;;;7.34;100.00;102888.25;5299425;28;20081;-75
2022/04/29 00:51:51;;;;;;;16.10;9.10;;;;;;;7.38;100.00;102890.69;5301010;28;20111;-75
2022/04/29 00:54:27;;;;;;;15.75;8.20;;;;;;;7.35;100.00;102877.56;5304628;27;20039;-75
2022/04/29 00:57:00;;;;;;;19.67;9.95;;;;;;;7.13;100.00;102879.47;5299936;27;20119;-75
2022/04/29 00:59:42;;;;;;;12.07;8.07;;;;;;;7.21;100.00;102885.31;5295970;28;20047;-75
2022/04/29 01:02:14;;;;;;;14.95;9.45;;;;;;;7.12;100.00;102873.31;5300464;28;20187;-75
2022/04/29 01:05:01;;;;;;;17.38;8.48;;;;;;;7.22;100.00;102881.69;5303699;28;20456;-75
2022/04/29 01:07:34;;;;;;;18.73;8.85;;;;;;;7.12;100.00;102891.88;5301081;28;20070;-75
2022/04/29 01:10:08;;;;;;;13.43;7.90;;;;;;;7.14;100.00;102884.72;5299717;28;20540;-75
2022/04/29 01:12:41;;;;;;;14.23;8.63;;;;;;;7.11;100.00;102876.88;5296048;28;20037;-74
2022/04/29 01:15:15;;;;;;;18.98;9.20;;;;;;;7.05;100.00;102879.84;5300573;28;20072;-75
2022/04/29 01:17:48;;;;;;;15.65;8.85;;;;;;;7.02;100.00;102874.66;5303142;28;20041;-75
2022/04/29 01:20:24;;;;;;;15.73;8.63;;;;;;;7.04;100.00;102863.97;5300935;28;20016;-75
2022/04/29 01:22:56;;;;;;;11.43;8.70;;;;;;;7.04;100.00;102870.13;5292339;28;20040;-75
2022/04/29 01:25:27;;;;;;;15.52;7.95;;;;;;;6.94;100.00;102855.56;5301837;28;20016;-75
2022/04/29 01:27:59;;;;;;;19.35;8.77;;;;;;;6.95;100.00;102852.00;5302383;28;20050;-75
2022/04/29 01:30:31;;;;;;;17.27;8.75;;;;;;;6.84;100.00;102849.84;5293258;28;20029;-75
2022/04/29 01:33:04;;;;;;;17.92;9.05;;;;;;;6.81;100.00;102840.19;5305463;28;20024;-75
2022/04/29 01:35:36;;;;;;;18.48;10.50;;;;;;;6.79;100.00;102847.38;5302127;28;20550;-75
2022/04/29 01:38:07;;;;;;;15.75;8.82;;;;;;;6.74;100.00;102840.56;5310902;28;20037;-75
2022/04/29 01:40:38;;;;;;;12.40;8.75;;;;;;;6.74;100.00;102846.72;5302588;28;20549;-75
2022/04/29 01:43:10;;;;;;;13.93;9.25;;;;;;;6.73;100.00;102842.34;5301807;28;20032;-75
2022/04/29 01:45:41;;;;;;;17.13;9.25;;;;;;;6.72;100.00;102843.28;5299824;28;20032;-75
2022/04/29 01:48:12;;;;;;;15.15;9.25;;;;;;;6.68;100.00;102844.34;5301045;28;20107;-75
2022/04/29 01:50:43;;;;;;;16.63;9.73;;;;;;;6.71;100.00;102833.59;5304280;27;20022;-75
2022/04/29 01:53:15;;;;;;;14.02;8.77;;;;;;;6.65;100.00;102838.31;5305568;28;20086;-75
2022/04/29 01:55:47;;;;;;;15.98;10.15;;;;;;;6.60;100.00;102835.88;5297133;28;41849;-75
2022/04/29 01:58:18;;;;;;;14.77;8.82;;;;;;;6.68;100.00;102846.13;5297858;27;20031;-75
2022/04/29 02:00:49;;;;;;;16.15;8.90;;;;;;;6.74;100.00;102838.75;5305994;28;20355;-75
2022/04/29 02:03:20;;;;;;;16.65;9.82;;;;;;;6.63;100.00;102836.59;5305660;28;20036;-75
2022/04/29 02:05:52;;;;;;;11.32;8.18;;;;;;;6.75;100.00;102840.50;5303692;28;20085;-75
2022/04/29 02:08:23;;;;;;;16.77;9.75;;;;;;;6.54;100.00;102836.13;5299794;28;20386;-75
2022/04/29 02:10:54;;;;;;;17.17;9.93;;;;;;;6.63;100.00;102843.69;5303562;28;20039;-75
2022/04/29 02:13:25;;;;;;;16.95;10.20;;;;;;;6.55;100.00;102849.31;5299451;28;20456;-75
2022/04/29 02:15:57;;;;;;;14.88;9.27;;;;;;;6.53;100.00;102845.88;5299647;28;20497;-74
2022/04/29 02:18:28;;;;;;;15.45;10.50;;;;;;;6.44;100.00;102843.63;5302488;28;20037;-75
2022/04/29 02:21:00;;;;;;;19.67;9.70;;;;;;;6.43;100.00;102837.47;5285258;28;20033;-75
2022/04/29 02:23:31;;;;;;;17.73;10.18;;;;;;;6.49;100.00;102840.78;5299659;28;20035;-75
2022/04/29 02:26:02;;;;;;;13.95;9.02;;;;;;;6.38;100.00;102839.47;5302894;28;20398;-75
2022/04/29 02:28:34;;;;;;;16.38;10.48;;;;;;;6.31;100.00;102835.34;5303835;27;20029;-75
2022/04/29 02:31:06;;;;;;;20.38;9.90;;;;;;;6.24;100.00;102825.91;5301102;28;20108;-75
2022/04/29 02:33:37;;;;;;;14.98;10.02;;;;;;;6.30;100.00;102832.78;5296207;28;20362;-75
2022/04/29 02:36:09;;;;;;;18.67;11.23;;;;;;;6.19;100.00;102825.28;5306722;27;20060;-75
2022/04/29 02:38:40;;;;;;;18.35;9.90;;;;;;;6.20;100.00;102840.25;5304437;28;20032;-75
2022/04/29 02:41:12;;;;;;;15.35;10.57;;;;;;;6.15;100.00;102829.81;5303261;27;38831;-75
2022/04/29 02:43:44;;;;;;;16.92;9.52;;;;;;;6.16;100.00;102828.91;5306327;28;20358;-75
2022/04/29 02:46:16;;;;;;;18.80;10.70;;;;;;;6.19;100.00;102827.94;5301506;28;20117;-75
2022/04/29 02:48:48;;;;;;;14.82;9.68;;;;;;;6.16;100.00;102839.50;5304775;28;20503;-75
2022/04/29 02:51:19;;;;;;;20.98;10.82;;;;;;;6.23;100.00;102835.66;5303223;27;20484;-75
2022/04/29 02:53:51;;;;;;;17.80;9.98;;;;;;;6.29;100.00;102834.53;5299633;28;20028;-75
2022/04/29 02:56:22;;;;;;;17.17;10.98;;;;;;;6.24;100.00;102826.81;5309780;27;20107;-75
2022/04/29 02:58:53;;;;;;;18.40;10.35;;;;;;;6.28;100.00;102832.84;5300706;28;20032;-75
2022/04/29 03:01:25;;;;;;;18.40;9.35;;;;;;;6.44;100.00;102830.38;5304722;28;20019;-75
2022/04/29 03:03:56;;;;;;;19.45;11.45;;;;;;;6.31;100.00;102831.81;5307341;27;20033;-74
2022/04/29 03:06:27;;;;;;;14.05;9.07;;;;;;;6.41;100.00;102827.84;5305710;28;20024;-75
2022/04/29 03:08:58;;;;;;;18.90;9.95;;;;;;;6.44;100.00;102822.41;5307231;27;20056;-74
2022/04/29 03:11:30;;;;;;;17.30;11.15;;;;;;;6.35;100.00;102809.59;5317185;28;20055;-75
2022/04/29 03:14:01;;;;;;;11.20;8.05;;;;;;;6.39;100.00;102803.19;5316707;27;20453;-74
2022/04/29 03:16:33;;;;;;;21.45;11.13;;;;;;;6.32;100.00;102805.25;5314843;27;20052;-74
2022/04/29 03:19:04;;;;;;;17.52;10.50;;;;;;;6.27;100.00;102796.63;5313901;27;20100;-75
2022/04/29 03:21:36;;;;;;;23.10;10.77;;;;;;;6.28;100.00;102786.94;5305470;28;20028;-75
2022/04/29 03:24:07;;;;;;;17.55;10.43;;;;;;;6.22;100.00;102786.25;5303208;28;20093;-75
2022/04/29 03:26:40;;;;;;;16.38;10.25;;;;;;;6.22;100.00;102802.16;5310020;28;20044;-75
2022/04/29 03:29:11;;;;;;;16.60;10.45;;;;;;;6.17;100.00;102811.22;5302391;27;20024;-75
2022/04/29 03:31:43;;;;;;;13.13;10.35;;;;;;;6.18;100.00;102802.34;5308199;28;20028;-75
2022/04/29 03:34:14;;;;;;;21.13;11.77;;;;;;;6.06;100.00;102817.81;5304434;27;20028;-75
2022/04/29 03:36:45;;;;;;;16.58;11.55;;;;;;;5.99;100.00;102818.16;5305235;28;20032;-75
2022/04/29 03:39:16;;;;;;;19.65;11.20;;;;;;;6.06;100.00;102816.97;5308293;28;20051;-75
2022/04/29 03:41:48;;;;;;;17.27;11.48;;;;;;;5.99;100.00;102820.81;5302472;28;20012;-75
2022/04/29 03:44:20;;;;;;;19.77;12.10;;;;;;;5.88;100.00;102815.94;5308752;28;20434;-75
2022/04/29 03:46:51;;;;;;;16.25;11.23;;;;;;;5.86;100.00;102817.78;5305117;28;20500;-75
2022/04/29 03:49:37;;;;;;;16.48;9.93;;;;;;;6.01;100.00;102803.94;5305460;28;20027;-75
2022/04/29 03:52:08;;;;;;;22.08;11.85;;;;;;;5.95;100.00;102804.16;5303981;28;20025;-75
2022/04/29 03:54:40;;;;;;;16.63;12.40;;;;;;;5.99;100.00;102805.75;5304190;28;20028;-75
2022/04/29 03:57:11;;;;;;;21.25;12.48;;;;;;;5.98;100.00;102817.31;5308140;28;20051;-74
2022/04/29 03:59:42;;;;;;;19.83;12.40;;;;;;;5.87;100.00;102809.78;5303216;28;20390;-74
2022/04/29 04:02:14;;;;;;;17.08;10.13;;;;;;;6.04;100.00;102811.72;5306726;28;20092;-75
2022/04/29 04:04:46;;;;;;;16.27;11.77;;;;;;;5.86;100.00;102815.13;5305066;27;20476;-75
2022/04/29 04:07:17;;;;;;;19.73;13.45;;;;;;;5.87;100.00;102815.06;5305528;28;20028;-74
2022/04/29 04:09:48;;;;;;;14.32;10.95;;;;;;;5.90;100.00;102815.88;5306480;28;20366;-75
2022/04/29 04:12:20;;;;;;;20.92;12.57;;;;;;;5.81;100.00;102815.31;5301857;28;20028;-75
2022/04/29 04:14:52;;;;;;;17.73;11.43;;;;;;;5.84;100.00;102809.91;5300874;28;20024;-75
2022/04/29 04:17:23;;;;;;;19.95;11.80;;;;;;;5.78;100.00;102817.22;5298140;27;20044;-74
2022/04/29 04:19:54;;;;;;;17.15;12.98;;;;;;;5.81;100.00;102815.31;5295374;28;20025;-75
2022/04/29 04:22:27;;;;;;;14.82;11.45;;;;;;;5.91;100.00;102807.88;5304395;27;20097;-75
2022/04/29 04:24:59;;;;;;;19.85;11.35;;;;;;;6.03;100.00;102794.13;5302671;27;20024;-75
2022/04/29 04:27:31;;;;;;;18.45;12.02;;;;;;;5.96;100.00;102799.75;5298506;28;20049;-75
2022/04/29 04:30:04;;;;;;;16.60;11.82;;;;;;;6.02;100.00;102800.34;5301729;28;20103;-75
2022/04/29 04:32:37;;;;;;;23.08;12.00;;;;;;;5.95;100.00;102801.50;5295955;27;20033;-75
2022/04/29 04:35:09;;;;;;;16.52;11.02;;;;;;;6.11;100.00;102795.59;5288175;28;20021;-75
2022/04/29 04:37:40;;;;;;;23.60;13.32;;;;;;;5.95;100.00;102801.50;5296770;28;20041;-75
2022/04/29 04:40:12;;;;;;;18.92;12.40;;;;;;;5.86;100.00;102799.25;5297015;27;20033;-75
2022/04/29 04:42:44;;;;;;;22.05;13.02;;;;;;;5.84;100.00;102799.31;5301820;28;20032;-75
2022/04/29 04:45:15;;;;;;;21.05;13.65;;;;;;;5.84;100.00;102795.81;5302020;27;20020;-75
2022/04/29 04:47:47;;;;;;;19.63;12.40;;;;;;;5.85;100.00;102795.72;5298721;28;20561;-75
2022/04/29 04:50:18;;;;;;;17.30;12.05;;;;;;;5.90;100.00;102795.53;5296867;28;20024;-75
2022/04/29 04:52:49;;;;;;;18.70;13.48;;;;;;;5.73;100.00;102788.28;5303106;28;20027;-75
2022/04/29 04:55:21;;;;;;;21.92;12.23;;;;;;;5.86;100.00;102799.25;5300216;27;20031;-75
2022/04/29 04:57:52;;;;;;;20.70;13.40;;;;;;;6.10;100.00;102794.75;5304945;28;20068;-75
2022/04/29 05:00:23;;;;;;;16.58;11.18;;;;;;;6.14;100.00;102791.03;5300801;28;20103;-75
2022/04/29 05:02:55;;;;;;;21.63;13.70;;;;;;;6.18;100.00;102791.75;5303099;28;20039;-75
2022/04/29 05:05:26;;;;;;;23.75;13.18;;;;;;;6.29;100.00;102793.94;5297500;28;20024;-75
2022/04/29 05:07:58;;;;;;;18.20;12.45;;;;;;;6.23;100.00;102795.91;5299463;28;20106;-75
2022/04/29 05:10:29;;;;;;;21.45;14.68;;;;;;;6.20;100.00;102798.69;5296484;28;20398;-75
2022/04/29 05:13:00;;;;;;;19.15;11.60;;;;;;;6.42;100.00;102790.69;5302721;28;20433;-75
2022/04/29 05:15:32;;;;;;;18.95;12.18;;;;;;;6.53;100.00;102792.00;5296930;28;20031;-75
2022/04/29 05:18:03;;;;;;;24.08;15.15;;;;;;;6.38;100.00;102798.81;5305642;28;20040;-75
2022/04/29 05:20:34;;;;;;;22.55;13.98;;;;;;;6.37;100.00;102795.31;5307985;27;20044;-75
2022/04/29 05:23:06;;;;;;;15.85;11.25;;;;;;;6.60;100.00;102788.13;5300724;28;20128;-75
2022/04/29 05:25:37;;;;;;;14.90;11.27;;;;;;;6.70;100.00;102797.41;5292982;28;20028;-76
2022/04/29 05:28:09;;;;;;;15.63;11.23;;;;;;;6.71;100.00;102787.66;5301177;28;20012;-75
2022/04/29 05:30:41;;;;;;;19.98;13.15;;;;;;;6.67;100.00;102800.19;5297435;28;20048;-75
2022/04/29 05:33:13;;;;;;;19.10;12.65;;;;;;;6.66;100.00;102800.25;5320116;28;20385;-76
2022/04/29 05:35:45;;;;;;;24.05;13.07;;;;;;;6.73;100.00;102799.91;5294834;28;20474;-75
2022/04/29 05:38:16;;;;;;;20.13;12.40;;;;;;;6.90;100.00;102799.13;5300438;28;21192;-75
2022/04/29 05:43:37;;;;;;;24.20;13.07;;;;;;;6.87;100.00;102801.06;5281855;28;20037;-75
2022/04/29 05:46:09;;;;;;;20.27;12.45;;;;;;;6.88;100.00;102795.69;5298999;27;20443;-75
2022/04/29 05:48:40;;;;;;;16.77;12.95;;;;;;;6.89;100.00;102802.72;5283091;28;21966;-75
2022/04/29 05:51:11;;;;;;;18.08;13.70;;;;;;;6.93;100.00;102806.09;5297330;28;20481;-75
2022/04/29 05:53:42;;;;;;;19.42;13.88;;;;;;;6.99;100.00;102806.69;5302286;28;20040;-75
2022/04/29 05:56:14;;;;;;;21.08;13.77;;;;;;;6.95;100.00;102807.75;5287110;28;20382;-75
2022/04/29 05:58:45;;;;;;;20.67;13.40;;;;;;;7.05;100.00;102818.81;5281773;28;20033;-75
2022/04/29 06:01:16;;;;;;;20.35;13.02;;;;;;;7.11;100.00;102813.19;5295939;28;20052;-75
2022/04/29 06:03:48;;;;;;;19.30;13.25;;;;;;;7.16;100.00;102813.84;5295768;28;20425;-75
2022/04/29 06:06:19;;;;;;;18.77;12.70;;;;;;;7.21;100.00;102808.31;5287712;28;20068;-75
2022/04/29 06:08:50;;;;;;;27.65;13.68;;;;;;;7.29;100.00;102810.59;5281653;28;20061;-75
2022/04/29 06:11:21;;;;;;;20.60;13.48;;;;;;;7.32;100.00;102805.16;5285035;28;20076;-75
2022/04/29 06:13:53;;;;;;;22.25;13.20;;;;;;;7.42;100.00;102816.22;5284272;28;42682;-76
2022/04/29 06:16:25;;;;;;;18.30;12.68;;;;;;;7.53;100.00;102816.53;5285685;28;20056;-75
2022/04/29 06:18:57;;;;;;;22.77;13.82;;;;;;;7.53;100.00;102813.88;5285455;28;20853;-75
2022/04/29 06:21:28;;;;;;;18.73;12.55;;;;;;;7.68;100.00;102821.13;5285277;28;20029;-75
2022/04/29 06:23:59;;;;;;;19.95;12.85;;;;;;;7.76;100.00;102824.22;5288630;28;20032;-75
2022/04/29 06:26:31;;;;;;;22.35;13.65;;;;;;;7.88;100.00;102822.78;5305336;28;20056;-75
2022/04/29 06:29:02;;;;;;;23.10;13.48;;;;;;;8.01;100.00;102824.81;5291431;28;20082;-75
2022/04/29 06:31:33;;;;;;;20.25;13.18;;;;;;;8.07;100.00;102830.69;5284945;28;20025;-75
2022/04/29 06:34:05;;;;;;;18.65;12.38;;;;;;;8.13;100.00;102824.19;5303756;27;20407;-75
2022/04/29 06:36:36;;;;;;;23.25;12.68;;;;;;;8.24;100.00;102823.63;5305214;28;20117;-75
2022/04/29 06:39:08;;;;;;;25.48;13.18;;;;;;;8.39;100.00;102832.63;5291246;28;20045;-74
2022/04/29 06:41:41;;;;;;;16.27;12.93;;;;;;;8.49;100.00;102832.09;5289127;28;20040;-75
2022/04/29 06:44:13;;;;;;;21.08;12.63;;;;;;;8.55;100.00;102814.97;5283314;28;20021;-75
2022/04/29 06:46:44;;;;;;;16.98;12.55;;;;;;;8.68;100.00;102821.38;5285401;28;20454;-75
2022/04/29 06:49:17;;;;;;;19.45;11.30;;;;;;;8.83;100.00;102821.47;5284875;28;20021;-75
2022/04/29 06:51:48;;;;;;;18.63;11.85;;;;;;;8.97;100.00;102818.91;5304956;27;20029;-75
2022/04/29 06:54:19;;;;;;;17.95;12.43;;;;;;;9.11;100.00;102823.50;5289566;28;20394;-75
2022/04/29 06:56:52;;;;;;;21.20;12.02;;;;;;;9.18;100.00;102830.19;5291841;28;20044;-75
2022/04/29 06:59:25;;;;;;;16.98;12.02;;;;;;;9.40;100.00;102829.00;5291627;28;20078;-76
2022/04/29 07:01:58;;;;;;;18.02;13.18;;;;;;;9.59;100.00;102835.00;5305021;28;20561;-75
2022/04/29 07:04:29;;;;;;;20.77;12.40;;;;;;;9.83;100.00;102832.75;5286429;28;20045;-76
2022/04/29 07:07:00;;;;;;;15.00;11.65;;;;;;;10.03;100.00;102831.56;5291454;28;20114;-75
2022/04/29 07:09:32;;;;;;;23.98;13.15;;;;;;;10.30;100.00;102830.88;5293034;28;20468;-75
2022/04/29 07:12:04;;;;;;;21.40;12.57;;;;;;;10.32;100.00;102828.16;5305303;28;20032;-75
2022/04/29 07:14:36;;;;;;;15.60;12.13;;;;;;;10.67;100.00;102823.31;5291599;28;20029;-75
2022/04/29 07:17:08;;;;;;;21.73;12.50;;;;;;;10.92;100.00;102832.47;5298768;28;20048;-75
2022/04/29 07:19:42;;;;;;;17.88;12.90;;;;;;;11.40;100.00;102837.50;5302708;28;20146;-76
2022/04/29 07:22:14;;;;;;;16.65;10.95;;;;;;;11.73;100.00;102832.59;5271901;28;20087;-75
2022/04/29 07:24:45;;;;;;;19.45;11.65;;;;;;;12.29;100.00;102832.44;5294590;28;20390;-76
2022/04/29 07:27:16;;;;;;;19.70;12.20;;;;;;;12.73;100.00;102829.44;5292258;28;20406;-76
2022/04/29 07:29:48;;;;;;;17.67;12.32;;;;;;;13.27;100.00;102831.84;5283302;28;20041;-75
2022/04/29 07:32:20;;;;;;;18.60;11.88;;;;;;;13.75;100.00;102833.72;5284701;28;20099;-75
2022/04/29 07:43:45;;;;;;;14.57;11.70;;;;;;;13.92;100.00;102821.69;5280430;28;20048;-75
2022/04/29 07:46:17;;;;;;;20.70;12.23;;;;;;;13.84;100.00;102821.44;5281816;28;20524;-76
2022/04/29 07:48:48;;;;;;;18.15;11.10;;;;;;;14.48;100.00;102826.38;5295988;28;21107;-75
2022/04/29 07:51:19;;;;;;;16.73;12.45;;;;;;;14.83;100.00;102812.91;5283928;28;20013;-76
2022/04/29 07:53:51;;;;;;;18.00;12.18;;;;;;;15.08;100.00;102824.34;5283848;28;20057;-76
2022/04/29 07:56:22;;;;;;;17.10;10.90;;;;;;;15.33;100.00;102831.28;5285116;28;20029;-75
2022/04/29 07:58:55;;;;;;;16.45;10.95;;;;;;;15.03;100.00;102823.88;5283260;28;20021;-76
2022/04/29 08:01:27;;;;;;;14.80;10.90;;;;;;;14.98;100.00;102828.75;5298440;28;20024;-75
2022/04/29 08:03:58;;;;;;;18.58;12.07;;;;;;;14.81;100.00;102830.94;5305052;28;20071;-76
2022/04/29 08:06:30;;;;;;;15.38;11.18;;;;;;;14.80;100.00;102833.78;5297759;28;20048;-76
2022/04/29 08:09:02;;;;;;;18.25;11.00;;;;;;;15.30;100.00;102837.78;5297769;28;20038;-76
2022/04/29 08:11:34;;;;;;;18.33;11.48;;;;;;;15.53;100.00;102828.78;5282298;28;20072;-76
2022/04/29 08:14:06;;;;;;;14.43;11.80;;;;;;;15.59;100.00;102834.50;5282815;28;20079;-76
2022/04/29 08:16:38;;;;;;;18.35;12.40;;;;;;;15.73;100.00;102832.53;5291130;28;20028;-76
2022/04/29 08:19:10;;;;;;;17.88;11.43;;;;;;;16.24;100.00;102835.34;5298978;27;20479;-75
2022/04/29 08:21:42;;;;;;;17.27;12.00;;;;;;;16.29;100.00;102829.56;5288994;28;20825;-75
2022/04/29 08:24:14;;;;;;;14.82;11.82;;;;;;;16.36;100.00;102844.22;5302262;28;40338;-75
2022/04/29 08:26:46;;;;;;;19.73;11.50;;;;;;;16.60;100.00;102837.69;5304135;28;20410;-76
2022/04/29 08:29:17;;;;;;;16.45;11.73;;;;;;;16.22;100.00;102839.16;5303252;28;20016;-76
2022/04/29 08:31:48;;;;;;;12.80;10.40;;;;;;;16.17;100.00;102844.09;5288237;28;20380;-76
2022/04/29 08:34:20;;;;;;;14.07;10.70;;;;;;;16.02;100.00;102847.09;5280443;28;20504;-75
2022/04/29 08:36:51;;;;;;;18.25;12.52;;;;;;;15.49;100.00;102847.84;5284221;28;20485;-75
2022/04/29 08:39:22;;;;;;;14.13;10.60;;;;;;;15.56;100.00;102850.03;5283713;28;20025;-75
2022/04/29 08:41:54;;;;;;;16.13;9.68;;;;;;;15.40;100.00;102837.84;5283134;28;20025;-75
2022/04/29 08:44:30;;;;;;;17.42;11.63;;;;;;;15.36;100.00;102838.22;5284044;28;20394;-75
2022/04/29 08:47:04;;;;;;;17.90;11.35;;;;;;;15.49;100.00;102831.72;5286572;28;20025;-75
2022/04/29 08:49:35;;;;;;;16.58;11.65;;;;;;;15.61;100.00;102829.84;5286125;28;20045;-75
2022/04/29 08:52:09;;;;;;;16.35;10.18;;;;;;;15.86;100.00;102839.44;5284211;28;20071;-76
2022/04/29 09:00:30;;;;;;;16.95;10.80;;;;;;;15.72;100.00;102828.09;5287188;28;20029;-76
2022/04/29 09:03:02;;;;;;;17.52;11.40;;;;;;;16.01;100.00;102820.31;5283690;28;20480;-76
2022/04/29 09:05:34;;;;;;;16.70;12.45;;;;;;;15.43;100.00;102807.19;5280560;28;20029;-75
2022/04/29 09:08:15;;;;;;;17.08;11.93;;;;;;;15.83;100.00;102815.50;5285944;28;20024;-76
2022/04/29 09:10:52;;;;;;;19.10;11.80;;;;;;;15.67;100.00;102834.75;5280989;28;20032;-76
2022/04/29 09:13:26;;;;;;;18.52;12.57;;;;;;;15.74;100.00;102835.06;5316955;28;20020;-76
2022/04/29 09:16:15;;;;;;;15.50;11.82;;;;;;;16.01;100.00;102828.38;5302970;28;20059;-76
2022/04/29 09:18:52;;;;;;;15.75;11.60;;;;;;;16.04;100.00;102839.75;5315228;28;20032;-76
2022/04/29 09:21:24;;;;;;;;;;;;;;;16.65;100.00;102838.13;5292348;28;20070;-76
2022/04/29 09:24:03;;;;;;;19.33;12.52;;;;;;;16.13;100.00;102842.63;5293592;28;19912;-76
2022/04/29 09:26:38;;;;;;;20.05;11.27;;;;;;;16.44;100.00;102836.34;5302554;28;20490;-76
2022/04/29 09:29:17;;;;;;;19.55;10.80;;;;;;;16.58;100.00;102842.34;5291929;28;20060;-76
2022/04/29 09:31:56;;;;;;;21.40;12.07;;;;;;;16.81;100.00;102840.34;5282960;28;20025;-76
2022/04/29 09:34:45;;;;;;;19.77;10.70;;;;;;;17.23;100.00;102848.31;5288318;28;20029;-76
2022/04/29 09:37:21;;;;;;;17.75;11.00;;;;;;;17.07;98.70;102850.69;5302354;28;20166;-76
2022/04/29 09:39:55;;;;;;;18.77;11.45;;;;;;;16.86;99.54;102848.06;5304773;28;20037;-75
2022/04/29 09:42:43;;;;;;;22.52;11.95;;;;;;;16.66;100.00;102847.09;5298817;27;20078;-76
2022/04/29 09:45:18;;;;;;;22.45;10.98;;;;;;;16.43;100.00;102847.25;5292053;28;20463;-76
2022/04/29 09:47:54;;;;;;;19.88;11.82;;;;;;;16.32;100.00;102847.28;5296421;28;20052;-76
2022/04/29 09:50:45;;;;;;;12.98;9.85;;;;;;;16.46;100.00;102844.25;5295356;28;20043;-75
2022/04/29 09:53:24;;;;;;;19.75;11.88;;;;;;;15.89;100.00;102835.66;5298578;28;20113;-75
2022/04/29 09:56:12;;;;;;;15.75;11.02;;;;;;;15.95;100.00;102834.28;5299319;28;20136;-75
2022/04/29 09:58:44;;;;;;;19.52;11.07;;;;;;;15.60;100.00;102832.66;5296055;28;20485;-75
2022/04/29 10:01:18;;;;;;;19.65;12.32;;;;;;;15.22;100.00;102829.47;5299071;28;20016;-75
2022/04/29 10:03:49;;;;;;;18.17;11.75;;;;;;;15.19;100.00;102826.16;5302922;28;20033;-75
2022/04/29 10:06:22;;;;;;;21.33;11.88;;;;;;;14.92;100.00;102814.84;5296376;28;20036;-75
2022/04/29 10:08:57;;;;;;;19.80;11.55;;;;;;;15.15;100.00;102830.94;5308041;28;20052;-76
2022/04/29 10:11:32;;;;;;;17.52;10.60;;;;;;;14.93;100.00;102829.97;5296783;28;20539;-76
2022/04/29 10:14:05;;;;;;;17.67;11.57;;;;;;;14.93;100.00;102827.28;5294605;28;20475;-76
2022/04/29 10:16:38;;;;;;;18.75;11.88;;;;;;;14.63;100.00;102821.66;5293956;28;20029;-75
2022/04/29 10:22:04;;;;;;;20.15;12.32;;;;;;;14.44;100.00;102819.53;5297816;28;20490;-75
2022/04/29 10:24:36;;;;;;;18.40;12.20;;;;;;;14.50;100.00;102816.38;5298340;27;20025;-76
2022/04/29 10:27:08;;;;;;;21.58;11.93;;;;;;;14.62;100.00;102815.47;5291138;28;20037;-76
2022/04/29 10:29:40;;;;;;;20.15;11.25;;;;;;;14.97;100.00;102810.91;5290197;28;20305;-76
2022/04/29 10:32:12;;;;;;;17.42;11.80;;;;;;;14.92;100.00;102812.16;5296953;28;20039;-76
2022/04/29 10:34:43;;;;;;;16.25;11.55;;;;;;;15.08;100.00;102806.41;5297805;28;20078;-76
2022/04/29 10:37:15;;;;;;;17.13;11.77;;;;;;;15.23;100.00;102811.50;5295487;28;20094;-76
2022/04/29 10:40:11;;;;;;;22.00;12.52;;;;;;;15.32;100.00;102814.28;5301222;28;20021;-76
2022/04/29 10:43:09;;;;;;;17.17;11.77;;;;;;;15.50;100.00;102816.44;5293206;28;20666;-75
2022/04/29 10:46:05;;;;;;;19.95;12.00;;;;;;;15.58;100.00;102807.72;5298962;28;20056;-75
2022/04/29 10:48:38;;;;;;;22.90;11.63;;;;;;;15.43;100.00;102804.50;5303398;27;20075;-75
2022/04/29 10:51:21;;;;;;;19.67;11.10;;;;;;;15.46;100.00;102802.41;5290382;28;20619;-75
2022/04/29 10:53:57;;;;;;;20.95;11.48;;;;;;;15.20;100.00;102803.66;5298019;28;20126;-75
2022/04/29 10:56:31;;;;;;;18.33;11.07;;;;;;;15.14;100.00;102802.34;5298620;28;20528;-76
2022/04/29 10:59:09;;;;;;;15.63;10.60;;;;;;;15.35;100.00;102802.41;5304071;28;20032;-76
2022/04/29 11:01:47;;;;;;;15.02;9.30;;;;;;;15.35;100.00;102801.56;5307324;28;20478;-75
2022/04/29 11:04:18;;;;;;;20.70;11.23;;;;;;;15.07;100.00;102796.59;5307228;28;20028;-76
2022/04/29 11:06:51;;;;;;;16.73;10.60;;;;;;;14.96;100.00;102790.41;5303136;28;20055;-75
2022/04/29 11:09:28;;;;;;;18.98;10.70;;;;;;;15.13;100.00;102796.13;5297012;28;20258;-75
2022/04/29 11:12:00;;;;;;;15.20;11.13;;;;;;;14.97;100.00;102794.78;5296957;28;20025;-75
2022/04/29 11:15:11;;;;;;;14.85;10.60;;;;;;;15.28;100.00;102791.31;5294551;28;20035;-75
2022/04/29 11:17:43;;;;;;;18.10;10.52;;;;;;;15.02;100.00;102789.91;5303954;28;20497;-76
2022/04/29 11:20:20;;;;;;;22.10;9.75;;;;;;;14.92;100.00;102784.44;5301898;28;20024;-75
2022/04/29 11:25:57;;;;;;;17.90;10.10;;;;;;;15.66;100.00;102791.81;5305430;28;20052;-76
2022/04/29 11:28:30;;;;;;;15.68;9.48;;;;;;;15.75;100.00;102791.06;5295779;28;20032;-75
2022/04/29 11:31:04;;;;;;;15.52;10.38;;;;;;;16.16;100.00;102791.22;5294980;28;20541;-76
2022/04/29 11:33:36;;;;;;;21.80;10.30;;;;;;;16.40;100.00;102783.72;5292733;28;20036;-76
2022/04/29 11:36:12;;;;;;;17.50;10.05;;;;;;;16.72;100.00;102781.88;5294398;28;20017;-76
2022/04/29 11:38:48;;;;;;;15.25;9.90;;;;;;;17.39;100.00;102780.34;5289467;28;20037;-76
2022/04/29 11:41:27;;;;;;;15.05;8.43;;;;;;;18.18;94.81;102778.50;5300324;28;20096;-76
2022/04/29 11:43:58;;;;;;;12.63;9.07;;;;;;;18.98;85.35;102777.06;5298171;28;20024;-76
2022/04/29 11:46:30;;;;;;;18.25;9.05;;;;;;;19.82;74.84;102783.19;5293724;28;20110;-75
2022/04/29 11:49:02;;;;;;;17.80;8.70;;;;;;;20.69;67.74;102773.28;5290792;28;20055;-75
2022/04/29 11:51:34;;;;;;;16.92;8.27;;;;;;;21.15;63.90;102772.91;5299575;28;20037;-76
2022/04/29 11:54:06;;;;;;;14.02;8.18;;;;;;;21.83;55.86;102771.81;5296697;28;20482;-75
2022/04/29 11:56:39;;;;;;;11.57;8.02;;;;;;;21.38;53.30;102775.00;5296011;28;20108;-76
2022/04/29 11:59:11;;;;;;;17.58;8.63;;;;;;;21.40;54.60;102772.97;5312529;28;20111;-76